Foosland, Illinois
Current Conditions -  °F | °C
As of 6:50 PM on Friday 19 Dec 2014 (Local Time) from KTIP Reporting Station
Broken Clouds Broken Clouds  
Wind Chill: 26°   Ceiling: 2700
Heat Index: 31°   Visibility: 7mi
Dew Point: 28°   Wind: 5mph
Humidity: 88%   Direction: 110°ESE
Pressure: 30.28"   Gusts: NA
Location:  40.36°N, 88.43°W
Report Text: KTIP 200050Z AUTO 11004KT 7SM BKN027 00/M02 A3028 RMK AO2 T10051023
Loading
Personal Weather Stations






























Interactive Weather Map New forecast layout! Learn more

10-Day Weather Forecast

Advertisements
Track Severe Weather on mobile